createdAt,value
2019-01-17T00:01:30.660Z,3.60
2019-01-17T00:06:56.332Z,3.20
2019-01-17T00:12:37.816Z,3.93
2019-01-17T00:18:04.033Z,3.97
2019-01-17T00:23:29.579Z,3.77
2019-01-17T00:28:53.415Z,3.90
2019-01-17T00:34:26.021Z,2.90
2019-01-17T00:39:56.908Z,2.80
2019-01-17T00:45:17.932Z,1.60
2019-01-17T00:50:37.081Z,1.70
2019-01-17T00:56:03.821Z,1.40
2019-01-17T01:01:29.188Z,1.50
2019-01-17T01:07:09.189Z,1.10
2019-01-17T01:12:30.216Z,1.80
2019-01-17T01:17:55.470Z,1.30
2019-01-17T01:23:23.493Z,1.00
2019-01-17T01:29:01.585Z,1.30
2019-01-17T01:34:24.879Z,0.93
2019-01-17T01:40:04.582Z,1.20
2019-01-17T01:45:39.170Z,1.87
2019-01-17T01:51:13.347Z,1.90
2019-01-17T01:56:20.235Z,2.77
2019-01-17T02:01:29.503Z,2.40
2019-01-17T02:06:36.427Z,3.10
2019-01-17T02:11:49.135Z,3.13
2019-01-17T02:16:59.646Z,2.97
2019-01-17T02:22:10.775Z,2.90
2019-01-17T02:27:19.802Z,2.87
2019-01-17T02:32:29.911Z,2.90
2019-01-17T02:37:42.057Z,3.30
2019-01-17T02:42:49.612Z,4.27
2019-01-17T02:47:58.595Z,4.50
2019-01-17T02:53:06.970Z,4.73
2019-01-17T02:58:18.854Z,5.67
2019-01-17T03:03:26.678Z,5.57
2019-01-17T03:08:35.299Z,6.30
2019-01-17T03:13:47.100Z,6.70
2019-01-17T03:19:03.214Z,7.00
2019-01-17T03:24:10.666Z,7.23
2019-01-17T03:29:19.692Z,7.33
2019-01-17T03:34:35.178Z,6.97
2019-01-17T03:39:45.391Z,8.60
2019-01-17T03:44:55.303Z,7.97
2019-01-17T03:50:06.317Z,8.07
2019-01-17T03:55:17.058Z,8.47
2019-01-17T04:00:30.979Z,8.27
2019-01-17T04:05:44.072Z,8.03
2019-01-17T04:10:55.009Z,8.20
2019-01-17T04:16:04.005Z,8.60
2019-01-17T04:21:16.274Z,9.07
2019-01-17T04:26:26.268Z,8.40
2019-01-17T04:31:41.527Z,9.83
2019-01-17T04:36:49.154Z,10.30
2019-01-17T04:42:01.936Z,11.07
2019-01-17T04:47:13.639Z,12.37
2019-01-17T04:52:26.071Z,13.70
2019-01-17T04:57:32.937Z,14.87
2019-01-17T05:02:44.087Z,15.93
2019-01-17T05:07:57.831Z,15.20
2019-01-17T05:13:09.431Z,15.80
2019-01-17T05:19:22.840Z,16.70
2019-01-17T05:24:35.624Z,15.80
2019-01-17T05:29:46.793Z,15.20
2019-01-17T05:34:59.891Z,16.63
2019-01-17T05:40:15.336Z,15.73
2019-01-17T05:45:28.997Z,18.13
2019-01-17T05:50:36.324Z,20.70
2019-01-17T05:55:42.707Z,20.57
2019-01-17T06:00:55.149Z,22.73
2019-01-17T06:06:07.656Z,23.47
2019-01-17T06:11:17.546Z,25.10
2019-01-17T06:16:45.801Z,26.53
2019-01-17T06:21:59.619Z,27.37
2019-01-17T06:27:12.355Z,27.63
2019-01-17T06:32:24.621Z,28.03
2019-01-17T06:37:44.962Z,27.73
2019-01-17T06:42:57.094Z,27.77
2019-01-17T06:48:10.118Z,27.23
2019-01-17T06:53:17.996Z,27.90
2019-01-17T06:58:27.153Z,27.20
2019-01-17T07:03:39.695Z,27.37
2019-01-17T07:08:52.906Z,27.63
2019-01-17T07:14:05.643Z,27.10
2019-01-17T07:19:14.825Z,27.67
2019-01-17T07:24:27.300Z,27.53
2019-01-17T07:29:38.322Z,27.20
2019-01-17T07:34:50.469Z,29.33
2019-01-17T07:40:01.648Z,27.90
2019-01-17T07:45:12.827Z,28.93
2019-01-17T07:50:21.131Z,30.63
2019-01-17T07:55:29.615Z,30.57
2019-01-17T08:00:44.299Z,32.00
2019-01-17T08:05:54.275Z,30.67
2019-01-17T08:11:02.433Z,30.87
2019-01-17T08:16:11.468Z,31.77
2019-01-17T08:21:24.044Z,31.40
2019-01-17T08:26:33.993Z,31.83
2019-01-17T08:31:44.749Z,31.70
2019-01-17T08:36:56.337Z,31.37
2019-01-17T08:42:05.592Z,30.93
2019-01-17T08:47:15.946Z,30.55
2019-01-17T08:52:27.202Z,31.97
2019-01-17T08:57:56.921Z,31.57
2019-01-17T09:03:04.102Z,28.52
2019-01-17T09:08:14.568Z,25.07
2019-01-17T09:13:26.250Z,11.45
2019-01-17T09:18:36.493Z,10.93
2019-01-17T09:23:47.335Z,9.57
2019-01-17T09:28:56.307Z,9.90
2019-01-17T09:34:08.812Z,8.70
2019-01-17T09:39:22.470Z,7.80
2019-01-17T09:44:35.081Z,7.07
2019-01-17T09:49:49.421Z,6.47
2019-01-17T09:54:59.270Z,6.47
2019-01-17T10:00:09.210Z,6.60
2019-01-17T10:05:19.222Z,7.72
2019-01-17T10:10:27.554Z,7.83
2019-01-17T10:15:59.849Z,7.77
2019-01-17T10:21:57.540Z,8.03
2019-01-17T10:27:28.865Z,6.63
2019-01-17T10:33:15.201Z,4.07
2019-01-17T10:38:43.941Z,4.47
2019-01-17T10:44:19.809Z,2.60
2019-01-17T10:50:00.091Z,2.20
2019-01-17T10:55:56.548Z,1.93
2019-01-17T11:01:26.328Z,2.20
2019-01-17T11:07:15.203Z,2.10
2019-01-17T11:13:33.156Z,3.10
2019-01-17T11:19:18.058Z,3.17
2019-01-17T11:24:45.131Z,3.33
2019-01-17T11:30:23.622Z,4.20
2019-01-17T11:36:16.813Z,4.67
2019-01-17T11:42:20.936Z,4.20
2019-01-17T11:48:05.802Z,3.10
2019-01-17T11:53:49.319Z,1.80
2019-01-17T11:59:23.055Z,1.53
2019-01-17T12:04:35.688Z,0.97
2019-01-17T12:09:45.493Z,0.80
2019-01-17T12:14:54.638Z,0.77
2019-01-17T12:20:09.193Z,0.97
2019-01-17T12:25:22.562Z,1.00
2019-01-17T12:30:31.501Z,1.17
2019-01-17T12:35:42.917Z,1.70
2019-01-17T12:40:58.319Z,1.17
2019-01-17T12:46:13.860Z,0.87
2019-01-17T12:51:23.813Z,1.27
2019-01-17T12:56:31.170Z,1.32
2019-01-17T13:01:41.112Z,1.47
2019-01-17T13:06:52.428Z,1.93
2019-01-17T13:12:04.133Z,1.40
2019-01-17T13:17:11.974Z,1.40
2019-01-17T13:22:23.593Z,1.30
2019-01-17T13:27:33.223Z,1.80
2019-01-17T13:32:41.824Z,1.20
2019-01-17T13:37:56.855Z,1.60
2019-01-17T13:43:05.029Z,1.77
2019-01-17T13:48:15.044Z,1.33
2019-01-17T13:53:24.032Z,1.93
2019-01-17T13:58:30.928Z,1.40
2019-01-17T14:03:43.624Z,1.30
2019-01-17T14:08:52.083Z,1.17
2019-01-17T14:14:08.227Z,0.90
2019-01-17T14:19:18.498Z,1.10
2019-01-17T14:24:27.533Z,1.50
2019-01-17T14:29:37.394Z,1.20
2019-01-17T14:34:46.351Z,1.30
2019-01-17T14:39:54.463Z,1.20
2019-01-17T14:45:04.617Z,1.37
2019-01-17T14:50:24.203Z,1.57
2019-01-17T14:55:36.835Z,1.90
2019-01-17T15:00:49.254Z,1.57
2019-01-17T15:06:00.163Z,1.70
2019-01-17T15:11:12.471Z,1.57
2019-01-17T15:16:25.471Z,1.10
2019-01-17T15:21:35.313Z,1.17
2019-01-17T15:26:47.860Z,1.03
2019-01-17T15:32:03.236Z,0.95
2019-01-17T15:37:16.753Z,0.80
2019-01-17T15:42:30.216Z,1.03
2019-01-17T15:47:36.450Z,0.97
2019-01-17T15:52:44.532Z,1.00
2019-01-17T15:57:54.346Z,0.67
2019-01-17T16:03:06.875Z,0.90
2019-01-17T16:08:19.850Z,1.60
2019-01-17T16:13:33.509Z,2.03
2019-01-17T16:18:43.654Z,1.50
2019-01-17T16:23:53.531Z,1.60
2019-01-17T16:29:07.889Z,1.60
2019-01-17T16:34:17.732Z,1.80
2019-01-17T16:39:25.483Z,1.35
2019-01-17T16:44:32.361Z,2.20
2019-01-17T16:49:42.646Z,1.67
2019-01-17T16:54:51.758Z,2.10
2019-01-17T17:00:04.022Z,1.77
2019-01-17T17:05:16.291Z,2.00
2019-01-17T17:10:26.055Z,2.53
2019-01-17T17:15:38.849Z,2.30
2019-01-17T17:20:46.170Z,0.90
2019-01-17T17:26:01.673Z,1.30
2019-01-17T17:31:12.723Z,2.10
2019-01-17T17:36:26.440Z,2.50
2019-01-17T17:41:37.257Z,2.50
2019-01-17T17:52:35.032Z,2.60
2019-01-17T17:57:47.534Z,2.63
2019-01-17T18:02:54.947Z,2.83
2019-01-17T18:08:05.792Z,2.30
2019-01-17T18:13:18.360Z,2.53
2019-01-17T18:18:28.257Z,1.90
2019-01-17T18:23:38.219Z,1.60
2019-01-17T18:28:49.135Z,1.10
2019-01-17T18:33:59.090Z,1.67
2019-01-17T18:39:14.545Z,2.10
2019-01-17T18:44:29.804Z,2.80
2019-01-17T18:49:44.234Z,2.73
2019-01-17T18:54:58.629Z,3.83
2019-01-17T19:00:11.738Z,2.87
2019-01-17T19:05:24.870Z,5.73
2019-01-17T19:10:38.501Z,1.80
2019-01-17T19:15:52.110Z,1.40
2019-01-17T19:21:03.477Z,1.67
2019-01-17T19:26:18.852Z,1.47
2019-01-17T19:31:26.948Z,1.37
2019-01-17T19:36:36.868Z,1.57
2019-01-17T19:41:45.162Z,1.90
2019-01-17T19:46:51.331Z,2.20
2019-01-17T19:52:05.733Z,1.47
2019-01-17T19:57:19.064Z,1.62
2019-01-17T20:02:29.756Z,1.50
2019-01-17T20:07:41.508Z,1.30
2019-01-17T20:12:56.005Z,2.20
2019-01-17T20:18:06.129Z,1.62
2019-01-17T20:23:18.791Z,1.83
2019-01-17T20:28:26.981Z,1.93
2019-01-17T20:33:36.092Z,1.60
2019-01-17T20:38:43.125Z,1.53
2019-01-17T20:43:53.929Z,1.20
2019-01-17T20:49:07.949Z,1.40
2019-01-17T20:54:20.046Z,1.50
2019-01-17T20:59:29.066Z,1.40
2019-01-17T21:04:38.305Z,1.73
2019-01-17T21:09:45.985Z,1.20
2019-01-17T21:14:59.887Z,1.70
2019-01-17T21:20:09.916Z,1.43
2019-01-17T21:25:22.216Z,1.27
2019-01-17T21:30:35.757Z,1.50
2019-01-17T21:35:47.046Z,2.97
2019-01-17T21:40:57.824Z,1.52
2019-01-17T21:46:09.557Z,1.90
2019-01-17T21:51:22.270Z,1.90
2019-01-17T21:56:34.952Z,1.90
2019-01-17T22:01:45.666Z,1.43
2019-01-17T22:06:56.417Z,1.17
2019-01-17T22:12:04.514Z,1.27
2019-01-17T22:17:16.225Z,1.40
2019-01-17T22:22:26.099Z,1.05
2019-01-17T22:27:38.815Z,1.83
2019-01-17T22:32:53.124Z,1.80
2019-01-17T22:38:03.078Z,1.30
2019-01-17T22:43:16.642Z,1.80
2019-01-17T22:48:31.081Z,1.55
2019-01-17T22:53:44.770Z,1.50
2019-01-17T22:58:55.080Z,1.33
2019-01-17T23:04:10.590Z,1.77
2019-01-17T23:09:24.136Z,1.70
2019-01-17T23:14:34.363Z,1.50
2019-01-17T23:19:44.340Z,2.33
2019-01-17T23:24:54.605Z,2.97
2019-01-17T23:30:04.454Z,2.80
2019-01-17T23:35:13.376Z,3.77
2019-01-17T23:40:24.776Z,4.80
2019-01-17T23:45:36.452Z,4.50
2019-01-17T23:50:46.277Z,4.77
2019-01-17T23:56:00.181Z,5.30
